createdAt,value
2022-12-03T00:03:29.745Z,101012.88
2022-12-03T00:08:31.598Z,101009.38
2022-12-03T00:13:33.221Z,101003.06
2022-12-03T00:18:34.924Z,100998.75
2022-12-03T00:23:41.809Z,101005.00
2022-12-03T00:28:44.117Z,100999.75
2022-12-03T00:33:45.763Z,101002.41
2022-12-03T00:38:47.428Z,100993.53
2022-12-03T00:43:49.076Z,100993.53
2022-12-03T00:48:50.743Z,101001.63
2022-12-03T00:53:52.459Z,100999.75
2022-12-03T00:58:54.125Z,101003.06
2022-12-03T01:03:55.837Z,101006.72
2022-12-03T01:08:57.525Z,100992.66
2022-12-03T01:13:59.129Z,100997.19
2022-12-03T01:19:00.841Z,100993.66
2022-12-03T01:24:02.632Z,100992.66
2022-12-03T01:29:04.623Z,100994.59
2022-12-03T01:34:06.270Z,100989.28
2022-12-03T01:39:08.153Z,100984.84
2022-12-03T01:44:17.835Z,100990.16
2022-12-03T01:49:22.525Z,100987.44
2022-12-03T01:54:32.867Z,100987.50
2022-12-03T01:59:37.423Z,100974.13
2022-12-03T02:04:39.572Z,100976.75
2022-12-03T02:09:41.169Z,100970.53
2022-12-03T02:14:42.899Z,100974.03
2022-12-03T02:19:44.764Z,100972.25
2022-12-03T02:24:54.346Z,100971.38
2022-12-03T02:29:56.694Z,100979.28
2022-12-03T02:34:58.305Z,100974.13
2022-12-03T02:40:06.976Z,100969.88
2022-12-03T02:45:13.359Z,100976.09
2022-12-03T02:50:17.641Z,100976.16
2022-12-03T02:55:19.870Z,100960.25
2022-12-03T03:00:23.016Z,100970.88
2022-12-03T03:05:25.159Z,100966.50
2022-12-03T03:10:27.338Z,100971.66
2022-12-03T03:15:28.995Z,100968.88
2022-12-03T03:20:30.723Z,100966.22
2022-12-03T03:25:32.455Z,100971.38
2022-12-03T03:30:37.398Z,100972.31
2022-12-03T03:35:54.588Z,100964.44
2022-12-03T03:40:56.795Z,100957.13
2022-12-03T03:45:58.567Z,100959.59
2022-12-03T03:51:00.795Z,100958.84
2022-12-03T03:56:02.485Z,100963.31
2022-12-03T04:01:04.464Z,100958.06
2022-12-03T04:06:06.651Z,100958.13
2022-12-03T04:11:26.913Z,100952.84
2022-12-03T04:16:28.852Z,100952.84
2022-12-03T04:21:49.169Z,100943.94
2022-12-03T04:27:09.291Z,100939.44
2022-12-03T04:32:30.303Z,100941.97
2022-12-03T04:37:31.913Z,100948.13
2022-12-03T04:42:33.528Z,100935.84
2022-12-03T04:47:39.736Z,100947.25
2022-12-03T04:52:41.749Z,100951.69
2022-12-03T04:57:43.414Z,100949.13
2022-12-03T05:02:45.137Z,100949.03
2022-12-03T05:07:47.184Z,100951.84
2022-12-03T05:12:48.841Z,100934.94
2022-12-03T05:17:50.483Z,100928.75
2022-12-03T05:22:52.158Z,100934.06
2022-12-03T05:27:53.824Z,100927.84
2022-12-03T05:32:55.911Z,100926.81
2022-12-03T05:37:57.528Z,100924.88
2022-12-03T05:43:01.275Z,100920.34
2022-12-03T05:48:04.359Z,100916.91
2022-12-03T05:53:06.290Z,100920.34
2022-12-03T05:58:08.206Z,100915.06
2022-12-03T06:03:10.479Z,100925.66
2022-12-03T06:08:12.612Z,100915.97
2022-12-03T06:13:14.300Z,100927.38
2022-12-03T06:18:15.940Z,100921.00
2022-12-03T06:23:17.590Z,100920.44
2022-12-03T06:28:19.219Z,100912.63
2022-12-03T06:33:20.879Z,100926.72
2022-12-03T06:38:22.556Z,100929.38
2022-12-03T06:43:24.341Z,100929.38
2022-12-03T06:48:26.003Z,100935.56
2022-12-03T06:53:27.609Z,100925.81
2022-12-03T06:58:29.242Z,100923.16
2022-12-03T07:03:30.853Z,100922.34
2022-12-03T07:08:32.632Z,100927.59
2022-12-03T07:13:34.267Z,100928.31
2022-12-03T07:18:35.975Z,100922.00
2022-12-03T07:23:37.601Z,100921.00
2022-12-03T07:28:39.238Z,100925.09
2022-12-03T07:33:40.944Z,100925.75
2022-12-03T07:38:42.615Z,100915.66
2022-12-03T07:43:45.253Z,100920.66
2022-12-03T07:48:46.932Z,100927.13
2022-12-03T07:53:48.598Z,100932.28
2022-12-03T07:58:50.395Z,100922.53
2022-12-03T08:03:52.218Z,100923.25
2022-12-03T08:08:54.228Z,100920.66
2022-12-03T08:13:57.502Z,100928.50
2022-12-03T08:18:59.195Z,100923.03
2022-12-03T08:24:11.923Z,100919.31
2022-12-03T08:29:16.771Z,100908.50
2022-12-03T08:34:23.578Z,100909.38
2022-12-03T08:39:41.527Z,100896.75
2022-12-03T08:44:43.184Z,100911.50
2022-12-03T08:50:17.409Z,100912.31
2022-12-03T08:55:36.556Z,100917.25
2022-12-03T09:00:38.729Z,100924.97
2022-12-03T09:05:40.607Z,100919.16
2022-12-03T09:10:42.555Z,100920.09
2022-12-03T09:15:44.165Z,100918.72
2022-12-03T09:20:45.793Z,100912.97
2022-12-03T09:25:47.419Z,100914.63
2022-12-03T09:30:49.068Z,100915.50
2022-12-03T09:35:50.766Z,100918.94
2022-12-03T09:40:52.923Z,100905.28
2022-12-03T09:45:54.617Z,100905.00
2022-12-03T09:50:56.338Z,100907.84
2022-12-03T09:55:59.510Z,100907.00
2022-12-03T10:01:01.323Z,100904.34
2022-12-03T10:06:02.968Z,100902.34
2022-12-03T10:11:04.900Z,100903.22
2022-12-03T10:16:11.163Z,100897.50
2022-12-03T10:21:19.087Z,100882.13
2022-12-03T10:26:37.657Z,100875.63
2022-12-03T10:31:39.562Z,100878.06
2022-12-03T10:36:41.359Z,100881.03
2022-12-03T10:41:44.377Z,100870.00
2022-12-03T10:46:47.367Z,100872.97
2022-12-03T10:51:49.223Z,100879.94
2022-12-03T10:56:52.124Z,100868.22
2022-12-03T11:01:54.024Z,100874.22
2022-12-03T11:06:55.802Z,100864.47
2022-12-03T11:12:06.819Z,100859.84
2022-12-03T11:17:08.771Z,100862.44
2022-12-03T11:22:10.491Z,100853.53
2022-12-03T11:27:12.195Z,100854.31
2022-12-03T11:32:38.563Z,100842.78
2022-12-03T11:37:40.369Z,100842.03
2022-12-03T11:42:42.125Z,100825.91
2022-12-03T11:48:01.578Z,100834.34
2022-12-03T11:53:13.450Z,100829.38
2022-12-03T11:58:16.717Z,100822.34
2022-12-03T12:03:33.411Z,100821.75
2022-12-03T12:08:38.383Z,100827.09
2022-12-03T12:13:40.149Z,100823.47
2022-12-03T12:18:55.178Z,100815.09
2022-12-03T12:23:57.555Z,100810.53
2022-12-03T12:28:59.268Z,100807.34
2022-12-03T12:34:01.574Z,100794.22
2022-12-03T12:39:10.567Z,100783.75
2022-12-03T12:44:15.428Z,100783.16
2022-12-03T12:49:20.856Z,100776.88
2022-12-03T12:54:22.495Z,100770.63
2022-12-03T12:59:25.820Z,100760.94
2022-12-03T13:04:27.563Z,100755.53
2022-12-03T13:09:29.862Z,100765.22
2022-12-03T13:14:35.041Z,100764.88
2022-12-03T13:20:02.051Z,100755.00
2022-12-03T13:25:50.580Z,100751.16
2022-12-03T13:30:48.119Z,100750.88
2022-12-03T13:35:52.597Z,100748.78
2022-12-03T13:41:01.942Z,100758.31
2022-12-03T13:46:03.624Z,100745.84
2022-12-03T13:51:23.889Z,100754.69
2022-12-03T13:56:29.723Z,100745.84
2022-12-03T14:01:31.515Z,100750.41
2022-12-03T14:06:33.711Z,100752.22
2022-12-03T14:11:54.096Z,100743.53
2022-12-03T14:16:59.922Z,100748.31
2022-12-03T14:22:02.503Z,100743.16
2022-12-03T14:27:04.226Z,100747.97
2022-12-03T14:32:06.155Z,100743.50
2022-12-03T14:37:07.827Z,100740.84
2022-12-03T14:42:16.658Z,100746.00
2022-12-03T14:47:22.332Z,100742.47
2022-12-03T14:52:23.971Z,100743.94
2022-12-03T14:57:25.769Z,100739.25
2022-12-03T15:02:27.581Z,100752.47
2022-12-03T15:07:29.249Z,100741.06
2022-12-03T15:12:31.573Z,100747.22
2022-12-03T15:17:33.528Z,100757.88
2022-12-03T15:22:35.193Z,100752.69
2022-12-03T15:27:36.814Z,100749.25
2022-12-03T15:32:38.396Z,100748.50
2022-12-03T15:37:40.324Z,100753.97
2022-12-03T15:42:41.958Z,100750.47
2022-12-03T15:47:43.875Z,100749.78
2022-12-03T15:52:45.556Z,100745.31
2022-12-03T15:57:47.555Z,100737.41
2022-12-03T16:02:52.721Z,100744.38
2022-12-03T16:07:54.727Z,100748.91
2022-12-03T16:12:56.390Z,100745.31
2022-12-03T16:17:58.730Z,100746.25
2022-12-03T16:23:00.360Z,100742.75
2022-12-03T16:28:02.000Z,100740.94
2022-12-03T16:33:03.646Z,100738.38
2022-12-03T16:38:05.274Z,100733.81
2022-12-03T16:43:08.515Z,100733.66
2022-12-03T16:48:10.154Z,100724.63
2022-12-03T16:53:12.138Z,100729.00
2022-12-03T16:58:13.895Z,100726.25
2022-12-03T17:03:16.141Z,100727.13
2022-12-03T17:08:17.902Z,100727.03
2022-12-03T17:13:19.721Z,100729.00
2022-12-03T17:18:22.918Z,100729.88
2022-12-03T17:23:24.538Z,100720.94
2022-12-03T17:28:26.143Z,100714.75
2022-12-03T17:33:27.759Z,100713.72
2022-12-03T17:38:32.752Z,100708.41
2022-12-03T17:43:37.257Z,100709.34
2022-12-03T17:48:40.524Z,100698.63
2022-12-03T17:53:42.193Z,100702.06
2022-12-03T17:58:43.852Z,100702.00
2022-12-03T18:03:45.536Z,100694.88
2022-12-03T18:08:47.343Z,100684.38
2022-12-03T18:13:49.038Z,100685.25
2022-12-03T18:18:56.247Z,100684.28
2022-12-03T18:24:00.040Z,100692.28
2022-12-03T18:29:01.746Z,100699.34
2022-12-03T18:34:03.376Z,100691.19
2022-12-03T18:39:10.317Z,100696.41
2022-12-03T18:44:12.276Z,100696.34
2022-12-03T18:49:14.286Z,100691.00
2022-12-03T18:54:15.937Z,100678.56
2022-12-03T18:59:17.578Z,100681.13
2022-12-03T19:04:19.330Z,100684.56
2022-12-03T19:09:21.222Z,100687.31
2022-12-03T19:14:22.930Z,100689.97
2022-12-03T19:19:27.264Z,100692.63
2022-12-03T19:24:29.522Z,100684.56
2022-12-03T19:29:31.138Z,100695.28
2022-12-03T19:34:32.953Z,100692.53
2022-12-03T19:39:34.684Z,100688.75
2022-12-03T19:44:36.340Z,100686.88
2022-12-03T19:49:37.946Z,100699.22
2022-12-03T19:54:39.617Z,100695.72
2022-12-03T19:59:42.480Z,100701.88
2022-12-03T20:04:44.154Z,100691.06
2022-12-03T20:09:46.076Z,100693.63
2022-12-03T20:14:48.585Z,100691.66
2022-12-03T20:19:51.350Z,100702.31
2022-12-03T20:24:53.096Z,100686.59
2022-12-03T20:29:54.998Z,100683.00
2022-12-03T20:34:56.792Z,100681.97
2022-12-03T20:39:58.521Z,100677.50
2022-12-03T20:45:00.113Z,100680.06
2022-12-03T20:50:01.757Z,100676.53
2022-12-03T20:55:03.821Z,100669.50
2022-12-03T21:00:06.104Z,100678.53
2022-12-03T21:05:08.224Z,100669.09
2022-12-03T21:10:32.859Z,100674.59
2022-12-03T21:15:34.497Z,100672.97
2022-12-03T21:20:43.401Z,100669.53
2022-12-03T21:25:45.027Z,100668.78
2022-12-03T21:30:46.735Z,100674.00
2022-12-03T21:35:48.367Z,100665.06
2022-12-03T21:40:50.052Z,100660.69
2022-12-03T21:45:52.045Z,100664.22
2022-12-03T21:51:07.902Z,100661.38
2022-12-03T21:56:12.797Z,100655.88
2022-12-03T22:01:17.766Z,100666.78
2022-12-03T22:06:19.792Z,100665.34
2022-12-03T22:11:23.334Z,100670.00
2022-12-03T22:16:25.029Z,100661.16
2022-12-03T22:21:27.511Z,100667.25
2022-12-03T22:26:29.123Z,100656.69
2022-12-03T22:31:30.799Z,100662.94
2022-12-03T22:36:32.501Z,100656.78
2022-12-03T22:41:34.125Z,100654.97
2022-12-03T22:46:35.888Z,100655.03
2022-12-03T22:51:37.657Z,100648.94
2022-12-03T22:56:39.639Z,100650.66
2022-12-03T23:01:41.789Z,100633.84
2022-12-03T23:06:43.672Z,100626.72
2022-12-03T23:11:45.496Z,100631.16
2022-12-03T23:16:47.421Z,100616.06
2022-12-03T23:21:49.068Z,100624.91
2022-12-03T23:26:53.540Z,100605.50
2022-12-03T23:31:56.980Z,100612.47
2022-12-03T23:36:58.705Z,100599.16
2022-12-03T23:42:00.385Z,100599.97
2022-12-03T23:47:02.314Z,100604.41
2022-12-03T23:52:12.012Z,100605.28
2022-12-03T23:57:16.306Z,100600.81
